Time;durP1;ratioP1;P1;durP2;ratioP2;P2;SDS_P1;SDS_P2;PMS_P1;PMS_P2;Temp;Humidity;BMP_temperature;BMP_pressure;BME280_temperature;BME280_humidity;BME280_pressure;Samples;Min_cycle;Max_cycle;Signal;HPM_P1;HPM_P2
2021/06/25 00:01:07;;;;;;;21.03;19.00;;;18.50;78.80;;;;;;5035434;28;20403;-92
2021/06/25 00:03:33;;;;;;;21.90;19.70;;;18.40;79.30;;;;;;5035619;28;20683;-92
2021/06/25 00:06:02;;;;;;;22.97;20.47;;;18.40;79.80;;;;;;5018623;28;20175;-91
2021/06/25 00:08:28;;;;;;;22.83;20.77;;;19.10;76.60;;;;;;5035110;28;20454;-91
2021/06/25 00:10:55;;;;;;;23.30;21.07;;;19.30;80.80;;;;;;5048980;28;20407;-92
2021/06/25 00:13:21;;;;;;;23.13;20.50;;;18.20;80.10;;;;;;5047232;28;20192;-91
2021/06/25 00:15:47;;;;;;;22.00;19.57;;;18.30;79.50;;;;;;5045888;28;20419;-90
2021/06/25 00:18:14;;;;;;;22.80;20.50;;;18.30;78.70;;;;;;5046371;28;20172;-90
2021/06/25 00:20:40;;;;;;;23.67;21.33;;;18.40;78.10;;;;;;5029634;28;20419;-92
2021/06/25 00:23:06;;;;;;;23.87;21.57;;;18.40;77.00;;;;;;5030957;28;20461;-91
2021/06/25 00:25:32;;;;;;;22.37;19.93;;;18.50;78.10;;;;;;5032269;28;20419;-92
2021/06/25 00:27:59;;;;;;;21.23;19.17;;;18.40;78.70;;;;;;5038261;28;20510;-92
2021/06/25 00:30:25;;;;;;;22.90;20.50;;;18.60;78.80;;;;;;5040085;28;20486;-91
2021/06/25 00:32:51;;;;;;;23.07;20.77;;;18.60;80.50;;;;;;5056927;28;20426;-92
2021/06/25 00:35:21;;;;;;;25.47;22.73;;;18.50;79.60;;;;;;5039951;28;20457;-91
2021/06/25 00:37:47;;;;;;;22.40;20.30;;;21.10;80.70;;;;;;5031188;28;20914;-91
2021/06/25 00:40:15;;;;;;;23.57;21.37;;;18.30;80.30;;;;;;5030952;28;20414;-91
2021/06/25 00:42:41;;;;;;;24.57;22.00;;;18.20;83.40;;;;;;5048515;28;20426;-91
2021/06/25 00:45:18;;;;;;;25.00;22.60;;;18.10;81.00;;;;;;5032700;28;20472;-89
2021/06/25 00:47:49;;;;;;;23.07;20.67;;;19.90;79.70;;;;;;5033362;28;20176;-92
2021/06/25 00:50:19;;;;;;;22.03;19.93;;;18.00;79.80;;;;;;5052002;28;20411;-90
2021/06/25 00:52:48;;;;;;;26.80;24.20;;;18.10;80.10;;;;;;5032952;28;20423;-90
2021/06/25 00:55:16;;;;;;;26.07;23.57;;;18.20;79.10;;;;;;5030818;28;20411;-90
2021/06/25 00:57:42;;;;;;;26.17;23.50;;;18.10;79.00;;;;;;5030862;28;20421;-92
2021/06/25 01:00:10;;;;;;;24.47;21.87;;;18.00;78.90;;;;;;5032416;28;20446;-90
2021/06/25 01:02:37;;;;;;;28.40;22.37;;;18.40;76.70;;;;;;5051068;28;20439;-91
2021/06/25 01:05:05;;;;;;;26.40;23.70;;;15.80;76.60;;;;;;5051213;28;20418;-90
2021/06/25 01:07:33;;;;;;;27.07;23.73;;;17.80;79.50;;;;;;5032790;28;20202;-90
2021/06/25 01:10:01;;;;;;;25.67;23.07;;;17.80;80.80;;;;;;5032316;28;20422;-92
2021/06/25 01:12:29;;;;;;;27.37;23.40;;;17.70;83.80;;;;;;5048188;28;20410;-92
2021/06/25 01:14:55;;;;;;;28.00;24.23;;;19.10;86.60;;;;;;5046947;28;20537;-91
2021/06/25 01:17:50;;;;;;;25.77;23.10;;;17.70;89.20;;;;;;5030112;28;20418;-91
2021/06/25 01:20:22;;;;;;;26.63;24.00;;;17.60;91.30;;;;;;5020267;28;20791;-91
2021/06/25 01:22:48;;;;;;;31.23;27.53;;;17.50;91.00;;;;;;5045733;28;20442;-90
2021/06/25 01:25:28;;;;;;;28.10;25.30;;;17.30;90.00;;;;;;5047125;28;20422;-90
2021/06/25 01:27:59;;;;;;;30.53;27.43;;;18.60;88.30;;;;;;5031559;28;20171;-90
2021/06/25 01:30:29;;;;;;;28.63;25.60;;;17.30;88.70;;;;;;5030946;28;20415;-91
2021/06/25 01:32:56;;;;;;;29.53;26.63;;;17.20;88.50;;;;;;5032458;28;20417;-91
2021/06/25 01:35:22;;;;;;;30.50;27.10;;;17.20;89.10;;;;;;5047212;28;20898;-91
2021/06/25 01:37:48;;;;;;;27.63;24.73;;;16.90;88.90;;;;;;5047855;28;20464;-92
2021/06/25 01:40:16;;;;;;;27.20;24.57;;;17.20;88.70;;;;;;5033135;28;20180;-92
2021/06/25 01:42:47;;;;;;;29.57;25.10;;;17.00;89.60;;;;;;5034383;28;20436;-91
2021/06/25 01:45:20;;;;;;;27.03;24.33;;;16.90;91.50;;;;;;5049730;28;20413;-91
2021/06/25 01:47:47;;;;;;;29.00;24.60;;;17.40;90.00;;;;;;5032680;28;20406;-91
2021/06/25 01:50:17;;;;;;;28.53;25.53;;;17.00;90.90;;;;;;5031809;28;21001;-91
2021/06/25 01:52:45;;;;;;;28.53;25.53;;;16.80;89.20;;;;;;5029459;28;20464;-90
2021/06/25 01:55:12;;;;;;;28.83;24.70;;;16.80;88.90;;;;;;5033981;28;20423;-89
2021/06/25 01:57:39;;;;;;;31.70;28.30;;;16.80;89.50;;;;;;5039738;28;20418;-90
2021/06/25 02:00:06;;;;;;;31.33;27.50;;;16.80;90.50;;;;;;5051602;28;20415;-90
2021/06/25 02:02:33;;;;;;;30.83;27.50;;;16.70;91.50;;;;;;5032088;28;20422;-91
2021/06/25 02:05:00;;;;;;;29.40;26.07;;;16.70;92.90;;;;;;5032857;28;20437;-91
2021/06/25 02:07:28;;;;;;;31.37;27.40;;;16.60;93.50;;;;;;5035322;28;20410;-91
2021/06/25 02:09:56;;;;;;;32.43;28.30;;;16.50;97.00;;;;;;5035171;28;20910;-91
2021/06/25 02:12:24;;;;;;;36.70;27.63;;;16.40;98.00;;;;;;5034488;28;20432;-91
2021/06/25 02:14:52;;;;;;;33.30;29.70;;;18.70;92.10;;;;;;5034861;28;20473;-91
2021/06/25 02:17:18;;;;;;;34.13;30.47;;;16.20;91.20;;;;;;5033166;28;20414;-91
2021/06/25 02:19:47;;;;;;;34.43;29.73;;;16.20;90.70;;;;;;5032465;28;20426;-91
2021/06/25 02:22:13;;;;;;;33.20;27.30;;;16.00;91.20;;;;;;5031960;28;20433;-92
2021/06/25 02:24:42;;;;;;;32.47;27.90;;;16.00;90.80;;;;;;5049682;28;20474;-91
2021/06/25 02:27:09;;;;;;;32.20;27.87;;;15.90;90.10;;;;;;5031863;28;20429;-91
2021/06/25 02:29:35;;;;;;;32.80;28.13;;;15.90;90.30;;;;;;5032319;28;20423;-91
2021/06/25 02:32:03;;;;;;;35.43;29.00;;;15.90;90.60;;;;;;5034282;28;20418;-91
2021/06/25 02:34:28;;;;;;;37.13;29.47;;;15.50;86.40;;;;;;5034886;28;20474;-91
2021/06/25 02:36:54;;;;;;;36.23;30.00;;;;;;;;;;5034216;28;20414;-90
2021/06/25 02:39:21;;;;;;;34.20;28.10;;;15.70;85.20;;;;;;5034021;28;20239;-91
2021/06/25 02:41:47;;;;;;;32.87;29.43;;;15.60;88.50;;;;;;5051782;28;20406;-90
2021/06/25 02:44:13;;;;;;;38.83;30.33;;;;;;;;;;5034471;28;20906;-91
2021/06/25 02:46:41;;;;;;;33.27;29.23;;;15.50;86.70;;;;;;5049784;28;20172;-91
2021/06/25 02:49:08;;;;;;;34.90;28.60;;;15.40;90.30;;;;;;5035032;28;20446;-90
2021/06/25 02:51:34;;;;;;;43.13;30.97;;;15.50;90.40;;;;;;5037992;28;20498;-89
2021/06/25 02:54:00;;;;;;;37.47;29.60;;;;;;;;;;5038504;28;20477;-90
2021/06/25 02:56:26;;;;;;;32.87;27.40;;;15.40;87.90;;;;;;5040038;28;20179;-91
2021/06/25 02:58:53;;;;;;;34.20;28.90;;;15.10;90.40;;;;;;5042140;28;20403;-87
2021/06/25 03:01:19;;;;;;;33.67;28.40;;;15.30;90.50;;;;;;5041642;28;20446;-90
2021/06/25 03:03:45;;;;;;;34.47;27.50;;;;;;;;;;5041736;28;20426;-90
2021/06/25 03:06:11;;;;;;;38.00;29.37;;;15.30;88.40;;;;;;5040040;28;20172;-90
2021/06/25 03:08:36;;;;;;;34.40;28.73;;;15.30;91.40;;;;;;5052231;28;20418;-90
2021/06/25 03:11:02;;;;;;;33.13;29.53;;;15.20;91.60;;;;;;5032190;28;20235;-90
2021/06/25 03:13:28;;;;;;;35.90;30.10;;;15.10;91.50;;;;;;5033986;28;20207;-89
2021/06/25 03:15:55;;;;;;;36.03;29.50;;;;;;;;;;5038497;28;20422;-90
2021/06/25 03:18:26;;;;;;;33.57;28.77;;;14.90;92.60;;;;;;5039783;28;20176;-90
2021/06/25 03:20:51;;;;;;;41.30;29.70;;;19.80;94.40;;;;;;5058622;28;20414;-90
2021/06/25 03:23:18;;;;;;;48.30;32.00;;;15.00;92.80;;;;;;5057845;28;20464;-89
2021/06/25 03:25:44;;;;;;;36.23;30.27;;;15.60;93.40;;;;;;5039806;28;20447;-90
2021/06/25 03:28:10;;;;;;;38.13;30.00;;;14.80;93.30;;;;;;5038992;28;20490;-89
2021/06/25 03:30:36;;;;;;;33.43;28.33;;;14.70;93.40;;;;;;5056265;28;20422;-87
2021/06/25 03:33:03;;;;;;;36.67;28.13;;;14.80;93.40;;;;;;5039353;28;20438;-89
2021/06/25 03:35:31;;;;;;;36.03;27.93;;;18.50;96.30;;;;;;5039626;28;20421;-88
2021/06/25 03:37:56;;;;;;;41.10;28.70;;;17.00;92.70;;;;;;5039091;28;20461;-91
2021/06/25 03:40:25;;;;;;;30.83;26.53;;;14.70;92.30;;;;;;5038901;28;20418;-90
2021/06/25 03:42:51;;;;;;;33.27;28.43;;;14.80;92.10;;;;;;5038834;28;20235;-91
2021/06/25 03:45:17;;;;;;;30.20;25.87;;;;;;;;;;5047490;28;20426;-90
2021/06/25 03:47:43;;;;;;;32.27;27.77;;;14.80;90.10;;;;;;5028803;28;20180;-90
2021/06/25 03:50:11;;;;;;;34.07;28.70;;;14.80;92.10;;;;;;5047258;28;20410;-90
2021/06/25 03:52:38;;;;;;;30.50;27.17;;;14.80;92.60;;;;;;5049003;28;20410;-90
2021/06/25 03:55:07;;;;;;;37.40;29.83;;;13.40;90.00;;;;;;5033461;28;20473;-90
2021/06/25 03:57:33;;;;;;;32.27;25.37;;;14.80;92.60;;;;;;5052614;28;20410;-89
2021/06/25 03:59:58;;;;;;;34.17;25.77;;;14.80;92.90;;;;;;5028922;28;20434;-92
2021/06/25 04:02:24;;;;;;;28.53;25.37;;;;;;;;;;5028511;28;20262;-91
2021/06/25 04:04:50;;;;;;;36.70;26.87;;;15.00;90.20;;;;;;5029637;28;20235;-91
2021/06/25 04:07:16;;;;;;;33.93;26.97;;;;;;;;;;5029281;28;20418;-91
2021/06/25 04:09:42;;;;;;;32.30;27.20;;;14.90;90.00;;;;;;5045793;28;20174;-92
2021/06/25 04:12:08;;;;;;;35.97;24.43;;;14.90;91.80;;;;;;5027985;28;20450;-91
2021/06/25 04:14:34;;;;;;;34.27;26.20;;;14.80;91.60;;;;;;5046834;28;20254;-89
2021/06/25 04:17:00;;;;;;;29.90;24.30;;;;;;;;;;5028649;28;20410;-92
2021/06/25 04:19:27;;;;;;;26.17;23.53;;;15.10;89.10;;;;;;5046023;28;20175;-92
2021/06/25 04:21:52;;;;;;;37.60;26.70;;;15.00;90.80;;;;;;5028515;28;20465;-89
2021/06/25 04:24:19;;;;;;;29.63;25.50;;;;;;;;;;5027625;28;20470;-90
2021/06/25 04:26:44;;;;;;;28.23;24.83;;;15.60;88.30;;;;;;5028673;28;20247;-90
2021/06/25 04:29:13;;;;;;;27.53;24.63;;;;;;;;;;5026990;28;20839;-91
2021/06/25 04:31:44;;;;;;;43.27;33.10;;;15.20;91.20;;;;;;5026275;28;20175;-92
2021/06/25 04:34:10;;;;;;;33.37;27.03;;;15.30;88.60;;;;;;5026859;28;20531;-92
2021/06/25 04:36:37;;;;;;;29.47;25.23;;;15.10;90.90;;;;;;5026295;28;20796;-90
2021/06/25 04:39:05;;;;;;;27.53;24.43;;;15.00;90.70;;;;;;5024480;28;20183;-90
2021/06/25 04:41:33;;;;;;;29.13;24.30;;;15.20;90.50;;;;;;5050127;28;20582;-87
2021/06/25 04:43:59;;;;;;;24.20;21.67;;;15.50;90.20;;;;;;5033723;28;20434;-92
2021/06/25 04:46:25;;;;;;;29.00;25.20;;;15.70;87.70;;;;;;5025907;28;20502;-91
2021/06/25 04:48:51;;;;;;;26.70;23.70;;;;;;;;;;5025853;28;20430;-87
2021/06/25 04:51:17;;;;;;;23.87;21.40;;;16.00;80.30;;;;;;4674856;28;9999877;-92
2021/06/25 04:53:46;;;;;;;26.60;23.83;;;16.20;83.30;;;;;;5022184;28;20201;-91
2021/06/25 04:56:12;;;;;;;24.70;22.17;;;16.30;82.70;;;;;;5023701;28;20432;-90
2021/06/25 04:58:38;;;;;;;25.97;23.27;;;;;;;;;;5021116;28;20872;-91
2021/06/25 05:01:04;;;;;;;25.07;22.60;;;16.40;78.60;;;;;;5022316;28;20176;-91
2021/06/25 05:03:30;;;;;;;24.03;21.63;;;16.40;82.10;;;;;;5021157;28;20485;-91
2021/06/25 05:05:56;;;;;;;26.00;21.33;;;16.40;82.60;;;;;;5022414;28;20560;-92
2021/06/25 05:08:25;;;;;;;25.53;22.93;;;16.30;83.90;;;;;;5024148;28;20412;-90
2021/06/25 05:10:50;;;;;;;29.10;23.90;;;16.20;82.80;;;;;;5023143;28;20524;-90
2021/06/25 05:13:17;;;;;;;27.17;24.27;;;;;;;;;;5005995;28;20483;-90
2021/06/25 05:15:43;;;;;;;25.83;23.10;;;16.30;78.10;;;;;;5012968;28;20180;-88
2021/06/25 05:18:16;;;;;;;25.17;22.47;;;16.30;79.80;;;;;;5012491;28;20423;-90
2021/06/25 05:20:42;;;;;;;22.83;20.47;;;17.70;75.20;;;;;;5012841;28;20177;-90
2021/06/25 05:23:10;;;;;;;25.60;22.97;;;17.20;76.70;;;;;;5022799;28;20435;-90
2021/06/25 05:25:37;;;;;;;22.93;20.63;;;17.20;80.20;;;;;;5022495;28;20416;-90
2021/06/25 05:28:04;;;;;;;22.97;20.87;;;18.80;79.60;;;;;;5022617;28;20503;-89
2021/06/25 05:30:32;;;;;;;21.77;19.33;;;17.80;81.20;;;;;;5006403;28;20427;-91
2021/06/25 05:33:02;;;;;;;23.60;21.17;;;18.20;78.60;;;;;;5005623;28;20420;-90
2021/06/25 05:35:31;;;;;;;25.23;20.87;;;18.60;77.60;;;;;;5002978;28;20445;-87
2021/06/25 05:38:01;;;;;;;23.07;20.83;;;18.70;78.20;;;;;;5021909;28;20435;-90
2021/06/25 05:40:29;;;;;;;22.00;19.93;;;;;;;;;;5019279;28;20585;-91
2021/06/25 05:42:55;;;;;;;26.77;22.43;;;19.40;59.40;;;;;;5022857;28;21112;-91
2021/06/25 05:45:22;;;;;;;23.30;21.00;;;20.00;59.10;;;;;;5006344;28;20420;-90
2021/06/25 05:47:47;;;;;;;26.43;22.97;;;20.00;59.10;;;;;;5022004;28;20438;-91
2021/06/25 05:50:15;;;;;;;25.73;23.23;;;22.00;60.30;;;;;;5006268;28;20503;-89
2021/06/25 05:52:42;;;;;;;25.53;23.03;;;22.30;57.20;;;;;;4676182;28;10000219;-90
2021/06/25 05:55:08;;;;;;;26.53;23.90;;;21.90;56.40;;;;;;5026051;28;20466;-92
2021/06/25 05:57:36;;;;;;;27.53;24.77;;;20.30;54.60;;;;;;5028085;28;20414;-89
2021/06/25 06:00:09;;;;;;;25.90;23.50;;;20.30;54.20;;;;;;5028628;28;20423;-92
2021/06/25 06:02:35;;;;;;;26.50;23.80;;;21.70;53.70;;;;;;5011824;28;20752;-90
2021/06/25 06:05:04;;;;;;;26.40;23.80;;;23.70;54.30;;;;;;5022946;28;20421;-90
2021/06/25 06:07:35;;;;;;;25.67;22.97;;;21.40;51.80;;;;;;5027883;28;20411;-91
2021/06/25 06:10:04;;;;;;;24.30;21.90;;;21.60;50.50;;;;;;5045269;28;20756;-90
2021/06/25 06:12:37;;;;;;;23.57;21.07;;;22.00;49.90;;;;;;5029628;28;20413;-92
2021/06/25 06:15:12;;;;;;;24.50;22.13;;;21.10;46.90;;;;;;5047398;28;20553;-91
2021/06/25 06:17:39;;;;;;;22.47;20.40;;;22.60;47.30;;;;;;5026392;28;20430;-93
2021/06/25 06:20:06;;;;;;;22.20;19.90;;;24.50;49.20;;;;;;5028769;28;20498;-89
2021/06/25 06:33:52;;;;;;;21.47;19.27;;;22.40;47.30;;;;;;5036024;28;20468;-91
2021/06/25 06:36:31;;;;;;;18.80;17.00;;;21.90;46.90;;;;;;5033912;28;20406;-91
2021/06/25 06:39:07;;;;;;;16.87;15.33;;;22.60;48.40;;;;;;5023196;28;20411;-91
2021/06/25 06:41:37;;;;;;;17.80;16.23;;;22.70;45.20;;;;;;5002425;28;20955;-89
2021/06/25 06:44:04;;;;;;;19.43;17.73;;;21.80;45.90;;;;;;5016275;28;20453;-89
2021/06/25 06:46:31;;;;;;;21.53;19.10;;;21.70;46.30;;;;;;5032014;28;20419;-89
2021/06/25 06:48:57;;;;;;;18.50;16.83;;;23.10;47.20;;;;;;5010892;28;20411;-89
2021/06/25 06:51:44;;;;;;;17.47;15.97;;;20.70;46.70;;;;;;5035945;28;20505;-89
2021/06/25 06:54:10;;;;;;;21.47;18.13;;;21.70;45.50;;;;;;5036201;28;20475;-91
2021/06/25 06:56:39;;;;;;;18.83;17.03;;;22.40;47.20;;;;;;5033303;28;20499;-89
2021/06/25 06:59:20;;;;;;;18.33;16.43;;;24.30;46.60;;;;;;5016515;28;20207;-89
2021/06/25 07:01:46;;;;;;;18.07;16.47;;;22.90;45.30;;;;;;5030156;28;20423;-91
2021/06/25 07:04:14;;;;;;;17.27;15.70;;;22.90;46.30;;;;;;5028467;28;20530;-89
2021/06/25 07:06:40;;;;;;;18.20;16.60;;;24.10;45.20;;;;;;5009969;28;20446;-87
2021/06/25 07:09:06;;;;;;;18.47;16.63;;;;;;;;;;4995367;28;20424;-87
2021/06/25 07:11:31;;;;;;;19.87;17.90;;;23.30;42.40;;;;;;5013624;28;20542;-86
2021/06/25 07:14:03;;;;;;;20.33;18.23;;;24.30;43.50;;;;;;5016539;28;20463;-87
2021/06/25 07:16:39;;;;;;;16.87;15.27;;;23.30;43.30;;;;;;5033161;28;20168;-90
2021/06/25 07:19:08;;;;;;;17.77;16.20;;;23.20;44.20;;;;;;5032862;28;20446;-88
2021/06/25 07:21:34;;;;;;;18.90;17.30;;;25.10;43.20;;;;;;5031670;28;20424;-90
2021/06/25 07:24:02;;;;;;;18.87;17.07;;;25.50;43.80;;;;;;5025733;28;20490;-91
2021/06/25 07:26:29;;;;;;;20.60;18.80;;;25.80;44.70;;;;;;5038382;28;20686;-91
2021/06/25 07:28:55;;;;;;;18.00;16.50;;;25.80;44.80;;;;;;5025589;28;20412;-89
2021/06/25 07:31:21;;;;;;;18.03;16.43;;;25.00;42.80;;;;;;5009962;28;20470;-89
2021/06/25 07:33:49;;;;;;;18.77;17.13;;;24.80;43.50;;;;;;5032950;28;20561;-91
2021/06/25 07:36:19;;;;;;;18.90;17.20;;;26.70;43.20;;;;;;5015052;28;20499;-91
2021/06/25 07:38:54;;;;;;;17.60;15.90;;;24.70;40.50;;;;;;5034900;28;20396;-92
2021/06/25 07:41:23;;;;;;;18.20;16.70;;;27.70;42.90;;;;;;5033207;28;20423;-87
2021/06/25 07:43:52;;;;;;;16.70;15.23;;;27.10;44.20;;;;;;5029759;28;20446;-90
2021/06/25 07:46:20;;;;;;;16.77;15.30;;;24.80;42.20;;;;;;5032987;28;20176;-90
2021/06/25 07:48:47;;;;;;;16.80;15.50;;;24.90;40.30;;;;;;5030090;28;20438;-92
2021/06/25 07:52:10;;;;;;;18.10;16.23;;;24.90;42.20;;;;;;5043512;28;20467;-90
2021/06/25 07:55:15;;;;;;;16.50;15.20;;;25.30;40.10;;;;;;5036509;28;20494;-92
2021/06/25 07:57:41;;;;;;;16.80;15.47;;;25.10;40.60;;;;;;5050620;28;20441;-88
2021/06/25 08:00:30;;;;;;;15.50;14.20;;;25.50;41.70;;;;;;5049850;28;20422;-88
2021/06/25 08:03:12;;;;;;;17.00;15.57;;;28.30;42.00;;;;;;5046746;28;20666;-92
2021/06/25 08:05:46;;;;;;;16.53;15.20;;;26.10;40.10;;;;;;5049413;28;20427;-90
2021/06/25 08:08:27;;;;;;;15.70;14.50;;;27.50;41.10;;;;;;5052942;28;20406;-91
2021/06/25 08:10:53;;;;;;;16.73;14.67;;;26.60;38.90;;;;;;5030787;28;20438;-92
2021/06/25 08:13:28;;;;;;;18.37;16.63;;;28.00;40.90;;;;;;5032076;28;20482;-91
2021/06/25 08:15:57;;;;;;;16.80;15.60;;;25.80;39.70;;;;;;5032756;28;20565;-92
2021/06/25 08:18:26;;;;;;;45.77;39.33;;;26.30;40.90;;;;;;5031694;28;20831;-92
2021/06/25 08:20:55;;;;;;;16.90;15.40;;;27.10;39.50;;;;;;5050773;28;20438;-91
2021/06/25 08:23:23;;;;;;;17.57;16.13;;;25.80;40.90;;;;;;5050681;28;20419;-90
2021/06/25 08:25:50;;;;;;;17.73;16.27;;;25.70;41.20;;;;;;5034124;28;20427;-89
2021/06/25 08:28:15;;;;;;;15.30;13.87;;;25.10;42.40;;;;;;5050360;28;20434;-89
2021/06/25 08:30:41;;;;;;;16.30;15.00;;;25.60;41.50;;;;;;5049023;28;20421;-89
2021/06/25 08:33:08;;;;;;;16.67;15.17;;;24.70;41.80;;;;;;5028023;28;20223;-90
2021/06/25 08:35:34;;;;;;;16.87;15.47;;;24.80;40.80;;;;;;5043507;28;20432;-91
2021/06/25 08:37:59;;;;;;;16.03;14.73;;;25.00;42.80;;;;;;5026264;28;20890;-90
2021/06/25 08:40:25;;;;;;;16.33;14.90;;;25.10;41.60;;;;;;5044647;28;20263;-90
2021/06/25 08:42:51;;;;;;;16.40;14.90;;;26.50;42.00;;;;;;5027213;28;20214;-89
2021/06/25 08:45:21;;;;;;;16.17;14.97;;;26.00;41.20;;;;;;5040993;28;20922;-89
2021/06/25 08:47:51;;;;;;;15.13;14.03;;;26.30;39.10;;;;;;5033472;28;20164;-91
2021/06/25 08:50:23;;;;;;;15.23;13.97;;;27.10;40.10;;;;;;5031630;28;20928;-88
2021/06/25 08:52:52;;;;;;;15.40;14.00;;;27.50;39.40;;;;;;5047901;28;20399;-89
2021/06/25 08:55:20;;;;;;;14.90;13.37;;;27.30;38.50;;;;;;5028371;28;20467;-87
2021/06/25 08:57:45;;;;;;;17.03;15.63;;;27.40;38.00;;;;;;5024493;28;20422;-92
2021/06/25 09:00:19;;;;;;;15.97;14.67;;;29.60;41.00;;;;;;5055769;28;20433;-89
2021/06/25 09:02:47;;;;;;;14.03;13.03;;;26.80;37.60;;;;;;4677385;28;9999948;-89
2021/06/25 09:05:21;;;;;;;17.07;15.57;;;26.80;39.00;;;;;;5004313;28;20172;-88
2021/06/25 09:07:47;;;;;;;16.20;14.70;;;26.60;39.60;;;;;;5001616;28;20419;-89
2021/06/25 09:10:14;;;;;;;16.37;14.77;;;28.60;40.30;;;;;;5019807;28;20479;-85
2021/06/25 09:12:55;;;;;;;15.17;14.07;;;26.20;38.50;;;;;;5000336;28;20408;-88
2021/06/25 09:15:22;;;;;;;15.60;14.27;;;25.90;38.90;;;;;;5003119;28;20545;-89
2021/06/25 09:18:12;;;;;;;16.50;15.10;;;26.10;38.90;;;;;;5018400;28;20419;-90
2021/06/25 09:20:39;;;;;;;16.83;15.40;;;25.90;38.90;;;;;;5001023;28;20172;-88
2021/06/25 09:23:08;;;;;;;16.07;14.77;;;26.20;40.30;;;;;;5015221;28;20415;-89
2021/06/25 09:25:53;;;;;;;16.27;14.83;;;26.20;39.40;;;;;;4997007;28;20492;-88
2021/06/25 09:28:26;;;;;;;16.30;14.87;;;27.10;40.20;;;;;;4996474;28;20427;-88
2021/06/25 09:30:53;;;;;;;15.47;13.93;;;25.70;39.90;;;;;;4996118;28;20427;-88
2021/06/25 09:33:18;;;;;;;17.73;16.33;;;26.00;40.60;;;;;;4995819;28;20463;-87
2021/06/25 09:35:53;;;;;;;17.80;15.97;;;26.10;41.60;;;;;;4668738;28;10000496;-88
2021/06/25 09:38:37;;;;;;;16.53;14.93;;;25.00;40.80;;;;;;5017477;28;20187;-89
2021/06/25 09:41:21;;;;;;;18.23;16.43;;;24.40;40.90;;;;;;5023458;28;20423;-90
2021/06/25 09:43:55;;;;;;;20.10;18.43;;;23.80;42.00;;;;;;5019816;28;20450;-90
2021/06/25 09:46:27;;;;;;;21.20;17.17;;;23.60;42.70;;;;;;5022864;28;20399;-90
2021/06/25 09:48:58;;;;;;;17.93;16.57;;;22.60;42.20;;;;;;5023347;28;20428;-88
2021/06/25 09:51:24;;;;;;;19.80;17.93;;;23.30;43.40;;;;;;5026165;28;20408;-90
2021/06/25 09:54:14;;;;;;;18.90;17.20;;;23.10;44.40;;;;;;5030624;28;20497;-90
2021/06/25 09:57:14;;;;;;;21.13;19.03;;;22.80;44.00;;;;;;5029274;28;20400;-91
2021/06/25 10:02:27;;;;;;;20.20;18.10;;;22.90;44.60;;;;;;5035899;28;20459;-92
2021/06/25 10:04:57;;;;;;;21.10;17.30;;;23.50;45.40;;;;;;5031627;28;20410;-92
2021/06/25 10:07:28;;;;;;;18.93;17.17;;;23.20;45.20;;;;;;5048865;28;20461;-88
2021/06/25 10:10:01;;;;;;;22.23;18.40;;;21.90;43.80;;;;;;5031034;28;20415;-90
2021/06/25 10:12:26;;;;;;;19.03;17.20;;;23.00;44.60;;;;;;5029330;28;20461;-91
2021/06/25 10:14:55;;;;;;;17.43;16.00;;;23.10;45.80;;;;;;5051008;28;20477;-88
2021/06/25 10:17:27;;;;;;;16.87;15.40;;;23.60;44.60;;;;;;5029942;28;20176;-86
2021/06/25 10:19:57;;;;;;;16.63;15.33;;;25.40;44.80;;;;;;5029857;28;20430;-85
2021/06/25 10:22:26;;;;;;;16.13;14.63;;;24.20;44.40;;;;;;5046638;28;20549;-89
2021/06/25 10:24:56;;;;;;;16.07;14.70;;;25.00;43.70;;;;;;5030614;28;20466;-90
2021/06/25 10:27:27;;;;;;;17.13;15.60;;;24.60;42.50;;;;;;5030465;28;20414;-89
2021/06/25 10:29:56;;;;;;;16.30;15.10;;;24.90;41.60;;;;;;5047667;28;20429;-90
2021/06/25 10:32:28;;;;;;;16.07;14.57;;;26.20;42.70;;;;;;5048915;28;20434;-91
2021/06/25 10:34:53;;;;;;;13.70;12.63;;;24.90;41.00;;;;;;5036276;28;20480;-92
2021/06/25 10:37:28;;;;;;;13.53;12.43;;;24.90;40.60;;;;;;5051400;28;20925;-92
2021/06/25 10:39:59;;;;;;;14.27;13.17;;;24.90;41.10;;;;;;5031356;28;20501;-90
2021/06/25 10:42:43;;;;;;;12.40;11.60;;;23.90;42.10;;;;;;5029765;28;20423;-89
2021/06/25 10:45:09;;;;;;;14.57;13.37;;;26.00;41.70;;;;;;5029633;28;20827;-88
2021/06/25 10:47:57;;;;;;;12.33;11.50;;;24.10;42.00;;;;;;5049007;28;20569;-91
2021/06/25 10:50:26;;;;;;;13.80;12.53;;;25.10;40.10;;;;;;5034942;28;20479;-91
2021/06/25 10:53:19;;;;;;;13.03;12.07;;;25.20;39.00;;;;;;5053914;28;20509;-90
2021/06/25 10:56:08;;;;;;;12.10;11.30;;;26.70;38.00;;;;;;5033131;28;21090;-92
2021/06/25 10:58:36;;;;;;;13.10;12.20;;;30.30;37.90;;;;;;5032909;28;20435;-93
2021/06/25 11:01:05;;;;;;;14.70;12.37;;;28.90;38.20;;;;;;5029763;28;20422;-91
2021/06/25 11:03:43;;;;;;;14.20;12.77;;;29.20;35.90;;;;;;5049593;28;20415;-89
2021/06/25 11:06:31;;;;;;;13.97;12.97;;;28.90;34.20;;;;;;5031116;28;20521;-93
2021/06/25 11:09:06;;;;;;;12.43;11.63;;;28.80;33.30;;;;;;5023703;28;20423;-86
2021/06/25 11:11:32;;;;;;;14.63;13.27;;;29.30;33.50;;;;;;5051258;28;20410;-91
2021/06/25 11:13:58;;;;;;;14.27;13.17;;;29.30;33.20;;;;;;5048025;28;20454;-87
2021/06/25 11:16:24;;;;;;;13.77;12.87;;;29.50;33.20;;;;;;5037579;28;20434;-90
2021/06/25 11:19:01;;;;;;;13.67;12.73;;;30.00;33.80;;;;;;5039442;28;20721;-88
2021/06/25 11:21:47;;;;;;;15.13;13.77;;;31.20;31.70;;;;;;5038225;28;20456;-86
2021/06/25 11:24:34;;;;;;;14.23;13.27;;;32.70;33.70;;;;;;5035973;28;20494;-89
2021/06/25 11:27:00;;;;;;;15.27;13.97;;;29.90;33.40;;;;;;5048500;28;20430;-92
2021/06/25 11:29:43;;;;;;;15.47;14.23;;;29.50;35.30;;;;;;5029670;28;20973;-87
2021/06/25 11:32:10;;;;;;;14.23;13.20;;;29.50;34.20;;;;;;5044223;28;20168;-90
2021/06/25 11:34:35;;;;;;;14.10;12.97;;;29.10;33.80;;;;;;5026242;28;20535;-89
2021/06/25 11:37:01;;;;;;;14.33;13.40;;;29.20;34.70;;;;;;5045266;28;20470;-90
2021/06/25 11:39:34;;;;;;;13.10;12.10;;;29.20;34.70;;;;;;5047107;28;20167;-88
2021/06/25 11:42:32;;;;;;;12.73;12.03;;;29.00;33.20;;;;;;5046277;28;20483;-90
2021/06/25 11:44:58;;;;;;;14.43;13.33;;;28.60;34.10;;;;;;5031447;28;20415;-89
2021/06/25 11:47:31;;;;;;;13.37;12.27;;;28.50;33.80;;;;;;5044767;28;20426;-92
2021/06/25 11:52:33;;;;;;;15.57;14.27;;;30.40;33.60;;;;;;5041554;28;20461;-91
2021/06/25 11:55:10;;;;;;;14.20;13.10;;;29.40;32.00;;;;;;5022963;28;20466;-89
2021/06/25 11:57:37;;;;;;;15.07;13.70;;;29.40;32.90;;;;;;5021190;28;20845;-91
2021/06/25 12:00:14;;;;;;;13.10;12.10;;;29.50;32.70;;;;;;5021475;28;20522;-91
2021/06/25 12:02:59;;;;;;;13.43;12.63;;;30.40;31.20;;;;;;5045489;28;20410;-90
2021/06/25 12:05:39;;;;;;;14.37;13.37;;;31.40;30.70;;;;;;5025968;28;20411;-91
2021/06/25 12:08:27;;;;;;;14.83;13.83;;;31.70;29.90;;;;;;5045979;28;20399;-91
2021/06/25 12:10:56;;;;;;;15.90;14.80;;;33.10;31.90;;;;;;5028496;28;20407;-90
2021/06/25 12:13:31;;;;;;;15.37;14.20;;;31.50;29.70;;;;;;5028367;28;20463;-92
2021/06/25 12:16:31;;;;;;;16.53;15.20;;;32.20;29.40;;;;;;5048371;28;20490;-90
2021/06/25 12:18:58;;;;;;;16.23;15.00;;;31.00;29.60;;;;;;5044621;28;20415;-91
2021/06/25 12:21:27;;;;;;;15.80;14.70;;;29.80;31.20;;;;;;5041044;28;20742;-90
2021/06/25 12:23:57;;;;;;;15.17;13.90;;;30.00;31.80;;;;;;5040319;28;20678;-87
2021/06/25 12:26:27;;;;;;;15.77;14.67;;;30.10;31.50;;;;;;5024171;28;20408;-89
2021/06/25 12:28:59;;;;;;;14.30;13.03;;;29.80;31.30;;;;;;5013417;28;20427;-89
2021/06/25 12:31:36;;;;;;;15.07;13.80;;;29.30;31.50;;;;;;5025519;28;20499;-90
2021/06/25 12:34:16;;;;;;;16.17;14.93;;;29.00;32.60;;;;;;5029458;28;20469;-91
2021/06/25 12:36:57;;;;;;;15.90;14.27;;;30.40;34.50;;;;;;5009352;28;20416;-89
2021/06/25 12:39:28;;;;;;;15.13;14.03;;;28.70;33.10;;;;;;5100807;23;20485;-92
2021/06/25 12:42:01;;;;;;;15.40;14.23;;;30.60;36.70;;;;;;5059162;28;21095;-91
2021/06/25 12:44:28;;;;;;;17.57;15.90;;;28.10;34.30;;;;;;5049281;28;20434;-90
2021/06/25 12:47:05;;;;;;;17.73;16.23;;;27.70;33.90;;;;;;5013025;28;20457;-91
2021/06/25 12:49:34;;;;;;;16.80;15.57;;;28.20;34.10;;;;;;5045764;28;20401;-92
2021/06/25 12:52:00;;;;;;;15.83;14.53;;;30.80;34.80;;;;;;5025421;28;20427;-89
2021/06/25 12:55:20;;;;;;;14.93;13.93;;;30.20;33.40;;;;;;5043168;28;20457;-90
2021/06/25 12:57:54;;;;;;;16.07;14.90;;;30.30;32.50;;;;;;5018543;28;20435;-91
2021/06/25 13:00:30;;;;;;;17.63;16.00;;;30.40;32.20;;;;;;5030596;28;20805;-89
2021/06/25 13:02:56;;;;;;;15.60;14.50;;;29.40;31.90;;;;;;5033341;28;20437;-88